createdAt,value
2022-09-06T00:01:35.685Z,3.60
2022-09-06T00:04:04.153Z,3.15
2022-09-06T00:06:32.546Z,3.10
2022-09-06T00:09:00.924Z,3.22
2022-09-06T00:11:30.661Z,3.17
2022-09-06T00:13:59.003Z,3.40
2022-09-06T00:16:30.256Z,3.75
2022-09-06T00:18:59.602Z,3.22
2022-09-06T00:21:29.208Z,3.03
2022-09-06T00:23:57.729Z,3.45
2022-09-06T00:26:26.346Z,3.85
2022-09-06T00:28:56.023Z,3.25
2022-09-06T00:31:25.371Z,3.30
2022-09-06T00:33:54.093Z,3.40
2022-09-06T00:36:23.033Z,3.45
2022-09-06T00:38:51.361Z,3.83
2022-09-06T00:41:19.695Z,3.45
2022-09-06T00:43:48.038Z,3.45
2022-09-06T00:46:19.647Z,3.72
2022-09-06T00:48:48.940Z,3.65
2022-09-06T00:51:18.083Z,3.33
2022-09-06T00:53:46.554Z,3.40
2022-09-06T00:56:15.501Z,3.45
2022-09-06T00:58:44.002Z,4.15
2022-09-06T01:01:12.472Z,3.83
2022-09-06T01:03:42.371Z,3.50
2022-09-06T01:06:16.768Z,3.47
2022-09-06T01:08:52.845Z,3.22
2022-09-06T01:11:26.546Z,3.50
2022-09-06T01:16:27.536Z,3.38
2022-09-06T01:19:06.560Z,3.23
2022-09-06T01:21:40.244Z,3.08
2022-09-06T01:24:41.809Z,3.28
2022-09-06T01:27:37.270Z,3.42
2022-09-06T01:30:08.690Z,3.58
2022-09-06T01:32:42.108Z,3.22
2022-09-06T01:35:16.973Z,3.13
2022-09-06T01:37:45.313Z,3.28
2022-09-06T01:40:13.842Z,3.55
2022-09-06T01:42:43.312Z,3.30
2022-09-06T01:45:15.727Z,3.42
2022-09-06T01:47:48.464Z,3.50
2022-09-06T01:50:35.364Z,3.05
2022-09-06T01:53:11.043Z,3.05
2022-09-06T01:55:45.259Z,3.35
2022-09-06T01:58:26.322Z,3.50
2022-09-06T02:00:57.324Z,3.47
2022-09-06T02:03:29.422Z,3.72
2022-09-06T02:06:00.048Z,3.10
2022-09-06T02:08:31.250Z,3.13
2022-09-06T02:11:01.206Z,3.40
2022-09-06T02:13:31.755Z,3.05
2022-09-06T02:16:03.125Z,3.45
2022-09-06T02:18:33.389Z,3.40
2022-09-06T02:21:03.618Z,3.38
2022-09-06T02:23:33.338Z,3.47
2022-09-06T02:26:06.085Z,2.80
2022-09-06T02:28:34.461Z,2.97
2022-09-06T02:31:05.819Z,3.08
2022-09-06T02:33:35.793Z,3.17
2022-09-06T02:36:06.178Z,3.53
2022-09-06T02:38:36.412Z,3.42
2022-09-06T02:41:05.892Z,3.20
2022-09-06T02:43:34.272Z,2.90
2022-09-06T02:46:04.012Z,3.67
2022-09-06T02:48:32.386Z,3.45
2022-09-06T02:51:03.798Z,3.67
2022-09-06T02:53:32.104Z,3.30
2022-09-06T02:56:00.452Z,3.72
2022-09-06T02:58:29.484Z,3.80
2022-09-06T03:00:57.928Z,3.80
2022-09-06T03:03:28.162Z,3.95
2022-09-06T03:05:56.736Z,3.60
2022-09-06T03:08:26.718Z,3.40
2022-09-06T03:10:56.232Z,3.80
2022-09-06T03:13:24.971Z,3.90
2022-09-06T03:15:53.918Z,3.70
2022-09-06T03:18:22.327Z,3.83
2022-09-06T03:20:52.180Z,3.75
2022-09-06T03:23:20.756Z,4.53
2022-09-06T03:25:49.143Z,4.13
2022-09-06T03:28:20.979Z,3.80
2022-09-06T03:30:50.243Z,3.60
2022-09-06T03:33:18.844Z,3.53
2022-09-06T03:35:49.325Z,3.30
2022-09-06T03:38:19.236Z,3.78
2022-09-06T03:40:47.870Z,4.03
2022-09-06T03:43:17.322Z,3.63
2022-09-06T03:45:47.186Z,4.10
2022-09-06T03:48:15.519Z,4.18
2022-09-06T03:50:46.550Z,3.95
2022-09-06T03:53:14.877Z,3.80
2022-09-06T03:55:46.051Z,3.67
2022-09-06T03:58:14.523Z,3.55
2022-09-06T04:00:42.892Z,3.80
2022-09-06T04:03:11.220Z,4.13
2022-09-06T04:05:39.593Z,4.15
2022-09-06T04:08:07.922Z,4.30
2022-09-06T04:10:36.274Z,5.18
2022-09-06T04:13:05.932Z,4.13
2022-09-06T04:15:34.284Z,4.15
2022-09-06T04:18:07.227Z,3.90
2022-09-06T04:20:37.429Z,4.45
2022-09-06T04:23:05.790Z,4.38
2022-09-06T04:25:34.132Z,4.30
2022-09-06T04:28:02.433Z,3.90
2022-09-06T04:30:32.310Z,3.92
2022-09-06T04:33:00.641Z,4.13
2022-09-06T04:35:28.991Z,4.68
2022-09-06T04:37:57.339Z,4.22
2022-09-06T04:40:25.691Z,4.35
2022-09-06T04:42:54.202Z,4.22
2022-09-06T04:45:24.962Z,3.90
2022-09-06T04:47:54.762Z,3.85
2022-09-06T04:50:23.102Z,4.25
2022-09-06T04:52:51.434Z,4.45
2022-09-06T04:55:19.784Z,4.50
2022-09-06T04:57:51.163Z,3.90
2022-09-06T05:00:19.969Z,4.50
2022-09-06T05:02:48.589Z,4.25
2022-09-06T05:05:18.411Z,4.00
2022-09-06T05:07:46.747Z,4.72
2022-09-06T05:10:15.132Z,3.75
2022-09-06T05:12:44.411Z,3.90
2022-09-06T05:15:13.102Z,3.95
2022-09-06T05:17:41.426Z,4.00
2022-09-06T05:20:10.599Z,4.05
2022-09-06T05:22:40.515Z,3.92
2022-09-06T05:25:09.096Z,4.25
2022-09-06T05:27:37.521Z,4.30
2022-09-06T05:30:06.590Z,4.15
2022-09-06T05:32:34.931Z,4.28
2022-09-06T05:35:03.325Z,4.30
2022-09-06T05:37:31.669Z,4.18
2022-09-06T05:40:01.965Z,4.20
2022-09-06T05:42:30.336Z,4.60
2022-09-06T05:44:58.674Z,4.20
2022-09-06T05:47:27.395Z,4.68
2022-09-06T05:49:55.962Z,5.30
2022-09-06T05:52:24.302Z,5.40
2022-09-06T05:54:52.673Z,4.47
2022-09-06T05:57:22.374Z,3.92
2022-09-06T05:59:50.823Z,4.78
2022-09-06T06:02:19.218Z,4.85
2022-09-06T06:04:47.692Z,4.32
2022-09-06T06:07:16.246Z,4.45
2022-09-06T06:09:44.613Z,4.50
2022-09-06T06:12:12.951Z,4.72
2022-09-06T06:14:42.643Z,4.38
2022-09-06T06:17:10.969Z,4.88
2022-09-06T06:19:40.326Z,4.93
2022-09-06T06:22:08.647Z,4.30
2022-09-06T06:24:36.973Z,4.10
2022-09-06T06:27:05.404Z,4.57
2022-09-06T06:29:33.863Z,4.38
2022-09-06T06:32:03.725Z,5.13
2022-09-06T06:34:32.109Z,4.50
2022-09-06T06:37:00.485Z,4.22
2022-09-06T06:39:28.825Z,5.38
2022-09-06T06:41:57.142Z,4.53
2022-09-06T06:44:32.024Z,4.57
2022-09-06T06:47:09.868Z,5.32
2022-09-06T06:49:38.208Z,4.35
2022-09-06T06:52:07.090Z,4.30
2022-09-06T06:54:37.429Z,4.57
2022-09-06T06:57:05.879Z,4.72
2022-09-06T06:59:34.252Z,5.28
2022-09-06T07:02:02.811Z,4.80
2022-09-06T07:04:32.601Z,4.63
2022-09-06T07:12:37.679Z,5.30
2022-09-06T07:15:06.456Z,5.25
2022-09-06T07:17:35.659Z,4.80
2022-09-06T07:20:13.184Z,4.80
2022-09-06T07:22:42.620Z,4.68
2022-09-06T07:25:13.345Z,4.55
2022-09-06T07:27:47.503Z,5.35
2022-09-06T07:30:16.942Z,5.32
2022-09-06T07:32:45.272Z,5.07
2022-09-06T07:35:15.034Z,5.15
2022-09-06T07:37:43.361Z,4.60
2022-09-06T07:40:12.154Z,5.10
2022-09-06T07:42:40.559Z,4.53
2022-09-06T07:45:09.496Z,4.18
2022-09-06T07:53:15.704Z,4.70
2022-09-06T07:55:53.455Z,3.97
2022-09-06T07:58:22.869Z,4.07
2022-09-06T08:00:51.284Z,4.10
2022-09-06T08:03:20.007Z,4.00
2022-09-06T08:11:24.419Z,4.20
2022-09-06T08:13:54.757Z,3.72
2022-09-06T08:16:23.594Z,4.45
2022-09-06T08:18:52.726Z,4.45
2022-09-06T08:21:23.907Z,4.03
2022-09-06T08:23:53.179Z,3.97
2022-09-06T08:26:22.491Z,3.70
2022-09-06T08:28:54.436Z,3.95
2022-09-06T08:31:22.836Z,4.80
2022-09-06T08:33:51.247Z,3.88
2022-09-06T08:36:19.596Z,3.97
2022-09-06T08:38:49.627Z,3.83
2022-09-06T08:41:23.243Z,3.97
2022-09-06T08:46:44.532Z,3.95
2022-09-06T08:49:13.165Z,3.70
2022-09-06T08:51:48.639Z,3.70
2022-09-06T08:54:23.455Z,3.50
2022-09-06T08:56:57.846Z,3.80
2022-09-06T08:59:26.197Z,3.20
2022-09-06T09:01:57.143Z,3.70
2022-09-06T09:04:26.488Z,3.00
2022-09-06T09:06:56.578Z,3.40
2022-09-06T09:09:29.103Z,3.28
2022-09-06T09:11:58.291Z,3.72
2022-09-06T09:14:29.557Z,3.30
2022-09-06T09:17:06.684Z,3.00
2022-09-06T09:19:37.706Z,3.00
2022-09-06T09:22:06.054Z,2.97
2022-09-06T09:24:37.218Z,3.20
2022-09-06T09:27:08.685Z,3.40
2022-09-06T09:32:47.612Z,3.53
2022-09-06T09:35:18.219Z,3.50
2022-09-06T09:37:47.434Z,3.47
2022-09-06T09:40:19.970Z,3.30
2022-09-06T09:42:48.352Z,3.20
2022-09-06T09:45:29.891Z,3.40
2022-09-06T09:47:58.596Z,3.00
2022-09-06T09:50:29.206Z,3.25
2022-09-06T09:52:57.723Z,3.10
2022-09-06T09:55:28.279Z,3.22
2022-09-06T09:57:56.779Z,2.97
2022-09-06T10:00:39.679Z,3.33
2022-09-06T10:03:14.824Z,3.03
2022-09-06T10:05:43.645Z,3.22
2022-09-06T10:08:12.797Z,2.70
2022-09-06T10:10:43.967Z,2.65
2022-09-06T10:13:16.300Z,2.60
2022-09-06T10:15:44.690Z,2.40
2022-09-06T10:18:17.204Z,2.40
2022-09-06T10:20:47.882Z,1.85
2022-09-06T10:23:18.941Z,2.58
2022-09-06T10:26:10.550Z,2.10
2022-09-06T10:28:39.123Z,2.50
2022-09-06T10:31:14.734Z,2.00
2022-09-06T10:33:53.156Z,2.42
2022-09-06T10:36:22.528Z,2.17
2022-09-06T10:38:55.453Z,2.20
2022-09-06T10:41:33.273Z,2.03
2022-09-06T10:44:13.104Z,1.95
2022-09-06T10:46:43.958Z,1.88
2022-09-06T10:49:15.489Z,1.63
2022-09-06T10:51:46.668Z,1.73
2022-09-06T10:54:15.660Z,1.90
2022-09-06T10:56:47.682Z,1.60
2022-09-06T11:02:09.804Z,1.90
2022-09-06T11:07:29.572Z,1.80
2022-09-06T11:10:00.567Z,1.80
2022-09-06T11:12:33.053Z,1.85
2022-09-06T11:15:02.166Z,2.03
2022-09-06T11:17:32.605Z,2.17
2022-09-06T11:20:05.732Z,1.80
2022-09-06T11:25:17.229Z,2.20
2022-09-06T11:30:17.362Z,1.67
2022-09-06T11:32:48.937Z,2.00
2022-09-06T11:35:24.967Z,2.50
2022-09-06T11:38:01.307Z,1.90
2022-09-06T11:40:30.765Z,1.95
2022-09-06T11:43:12.909Z,1.75
2022-09-06T11:45:43.746Z,2.00
2022-09-06T11:48:34.947Z,2.20
2022-09-06T11:51:06.605Z,1.88
2022-09-06T11:53:36.755Z,2.05
2022-09-06T11:56:24.803Z,1.48
2022-09-06T11:58:54.220Z,1.85
2022-09-06T12:01:37.271Z,1.85
2022-09-06T12:04:07.787Z,1.50
2022-09-06T12:06:37.621Z,2.70
2022-09-06T12:09:20.817Z,2.20
2022-09-06T12:11:49.710Z,2.05
2022-09-06T12:14:28.796Z,1.85
2022-09-06T12:17:30.504Z,1.95
2022-09-06T12:20:06.918Z,2.00
2022-09-06T12:23:03.381Z,2.17
2022-09-06T12:25:50.359Z,1.75
2022-09-06T12:28:24.487Z,1.75
2022-09-06T12:30:53.057Z,2.00
2022-09-06T12:33:24.179Z,1.58
2022-09-06T12:38:27.479Z,1.77
2022-09-06T12:40:59.105Z,1.83
2022-09-06T12:43:28.357Z,2.00
2022-09-06T12:45:56.806Z,1.60
2022-09-06T12:48:28.922Z,2.03
2022-09-06T12:51:05.602Z,1.90
2022-09-06T12:53:34.922Z,1.88
2022-09-06T12:56:07.113Z,1.70
2022-09-06T12:58:35.799Z,1.73
2022-09-06T13:01:07.331Z,1.63
2022-09-06T13:03:39.410Z,1.73
2022-09-06T13:06:09.832Z,1.93
2022-09-06T13:08:41.901Z,1.65
2022-09-06T13:11:12.061Z,1.47
2022-09-06T13:13:47.362Z,1.55
2022-09-06T13:16:20.689Z,1.55
2022-09-06T13:18:49.191Z,1.77
2022-09-06T13:21:27.347Z,1.50
2022-09-06T13:23:55.749Z,1.45
2022-09-06T13:26:37.545Z,1.90
2022-09-06T13:29:12.713Z,1.70
2022-09-06T13:31:41.274Z,1.50
2022-09-06T13:34:09.671Z,1.50
2022-09-06T13:36:39.392Z,1.70
2022-09-06T13:39:07.777Z,1.48
2022-09-06T13:41:41.160Z,1.40
2022-09-06T13:44:18.639Z,1.40
2022-09-06T13:46:47.372Z,1.45
2022-09-06T13:49:15.994Z,1.38
2022-09-06T13:51:45.688Z,1.42
2022-09-06T13:54:15.595Z,1.20
2022-09-06T13:56:44.937Z,1.60
2022-09-06T13:59:13.880Z,1.42
2022-09-06T14:01:43.426Z,1.25
2022-09-06T14:04:13.026Z,1.77
2022-09-06T14:06:41.596Z,1.40
2022-09-06T14:09:11.364Z,1.42
2022-09-06T14:11:39.775Z,1.40
2022-09-06T14:14:09.719Z,1.63
2022-09-06T14:16:38.057Z,1.17
2022-09-06T14:19:06.655Z,1.20
2022-09-06T14:21:34.965Z,1.40
2022-09-06T14:24:04.702Z,1.92
2022-09-06T14:26:34.727Z,1.45
2022-09-06T14:29:03.287Z,1.13
2022-09-06T14:31:32.679Z,1.52
2022-09-06T14:34:01.436Z,1.42
2022-09-06T14:36:30.393Z,1.35
2022-09-06T14:38:59.040Z,1.60
2022-09-06T14:41:27.670Z,1.42
2022-09-06T14:43:58.429Z,1.50
2022-09-06T14:46:27.814Z,1.50
2022-09-06T14:48:59.849Z,1.50
2022-09-06T14:51:28.416Z,1.40
2022-09-06T14:53:57.749Z,1.30
2022-09-06T14:56:27.131Z,1.48
2022-09-06T14:58:59.817Z,1.50
2022-09-06T15:01:32.015Z,1.30
2022-09-06T15:04:03.945Z,1.15
2022-09-06T15:06:33.525Z,1.40
2022-09-06T15:09:01.876Z,1.20
2022-09-06T15:11:31.140Z,1.08
2022-09-06T15:14:00.859Z,1.27
2022-09-06T15:16:29.958Z,1.25
2022-09-06T15:18:58.419Z,1.20
2022-09-06T15:21:26.880Z,1.40
2022-09-06T15:23:55.214Z,1.20
2022-09-06T15:26:23.580Z,1.10
2022-09-06T15:28:51.956Z,1.00
2022-09-06T15:31:22.008Z,1.40
2022-09-06T15:33:52.830Z,1.40
2022-09-06T15:36:22.004Z,1.30
2022-09-06T15:38:52.296Z,1.23
2022-09-06T15:41:22.189Z,1.40
2022-09-06T15:43:51.404Z,1.33
2022-09-06T15:46:21.198Z,1.38
2022-09-06T15:48:53.710Z,1.20
2022-09-06T15:51:22.436Z,1.83
2022-09-06T15:53:50.821Z,1.33
2022-09-06T15:56:19.410Z,1.30
2022-09-06T15:58:48.033Z,1.50
2022-09-06T16:01:17.115Z,1.40
2022-09-06T16:03:46.257Z,1.10
2022-09-06T16:08:53.613Z,1.42
2022-09-06T16:11:21.990Z,1.30
2022-09-06T16:13:50.355Z,1.20
2022-09-06T16:16:18.808Z,1.15
2022-09-06T16:18:48.359Z,1.38
2022-09-06T16:21:19.648Z,1.33
2022-09-06T16:23:50.424Z,1.20
2022-09-06T16:26:21.589Z,1.20
2022-09-06T16:28:50.681Z,1.25
2022-09-06T16:31:19.803Z,1.17
2022-09-06T16:33:48.964Z,1.23
2022-09-06T16:36:19.768Z,1.17
2022-09-06T16:38:48.524Z,1.20
2022-09-06T16:41:19.269Z,1.30
2022-09-06T16:43:49.251Z,1.20
2022-09-06T16:46:17.880Z,1.05
2022-09-06T16:48:51.947Z,1.30
2022-09-06T16:51:23.005Z,1.67
2022-09-06T16:53:52.135Z,1.65
2022-09-06T16:56:21.762Z,1.75
2022-09-06T16:58:52.000Z,1.88
2022-09-06T17:01:20.476Z,1.98
2022-09-06T17:03:48.961Z,1.60
2022-09-06T17:06:18.093Z,2.00
2022-09-06T17:08:47.990Z,1.70
2022-09-06T17:11:17.063Z,1.75
2022-09-06T17:13:46.191Z,1.95
2022-09-06T17:16:32.109Z,1.83
2022-09-06T17:19:01.355Z,1.73
2022-09-06T17:21:30.179Z,1.90
2022-09-06T17:24:03.115Z,1.90
2022-09-06T17:26:31.782Z,1.85
2022-09-06T17:29:00.450Z,2.05
2022-09-06T17:31:28.871Z,2.30
2022-09-06T17:33:59.674Z,2.20
2022-09-06T17:36:29.873Z,2.15
2022-09-06T17:39:03.360Z,3.53
2022-09-06T17:41:36.669Z,2.30
2022-09-06T17:44:05.837Z,3.28
2022-09-06T17:46:34.213Z,3.80
2022-09-06T17:49:02.595Z,2.88
2022-09-06T17:51:31.119Z,2.22
2022-09-06T17:53:59.525Z,2.50
2022-09-06T17:56:30.346Z,2.30
2022-09-06T17:58:59.390Z,2.17
2022-09-06T18:01:29.453Z,2.22
2022-09-06T18:03:58.161Z,2.35
2022-09-06T18:06:28.031Z,2.70
2022-09-06T18:08:56.891Z,3.03
2022-09-06T18:11:26.568Z,2.50
2022-09-06T18:13:59.865Z,2.20
2022-09-06T18:18:57.481Z,2.47
2022-09-06T18:21:26.673Z,2.00
2022-09-06T18:24:09.943Z,1.83
2022-09-06T18:26:39.700Z,2.30
2022-09-06T18:29:13.190Z,2.20
2022-09-06T18:31:43.775Z,2.50
2022-09-06T18:34:13.914Z,2.17
2022-09-06T18:36:44.650Z,2.97
2022-09-06T18:39:17.305Z,2.55
2022-09-06T18:42:07.291Z,2.58
2022-09-06T18:44:44.018Z,2.33
2022-09-06T18:47:15.921Z,2.00
2022-09-06T18:49:44.577Z,2.45
2022-09-06T18:52:20.348Z,2.90
2022-09-06T18:54:51.121Z,2.60
2022-09-06T18:57:21.969Z,2.38
2022-09-06T18:59:58.937Z,2.38
2022-09-06T19:02:30.089Z,2.55
2022-09-06T19:04:59.383Z,2.90
2022-09-06T19:07:29.705Z,2.65
2022-09-06T19:10:03.706Z,2.40
2022-09-06T19:12:34.543Z,2.63
2022-09-06T19:15:04.820Z,2.10
2022-09-06T19:17:34.617Z,2.50
2022-09-06T19:20:03.470Z,2.40
2022-09-06T19:22:33.391Z,2.40
2022-09-06T19:25:06.987Z,2.33
2022-09-06T19:27:35.600Z,2.10
2022-09-06T19:30:06.960Z,2.35
2022-09-06T19:32:38.368Z,2.60
2022-09-06T19:35:12.755Z,2.33
2022-09-06T19:37:43.221Z,2.70
2022-09-06T19:40:12.309Z,2.38
2022-09-06T19:43:05.964Z,2.40
2022-09-06T19:45:39.927Z,2.47
2022-09-06T19:48:08.800Z,2.55
2022-09-06T19:50:41.801Z,2.30
2022-09-06T19:53:10.330Z,2.40
2022-09-06T19:55:39.514Z,2.30
2022-09-06T19:58:09.110Z,2.33
2022-09-06T20:00:48.383Z,2.20
2022-09-06T20:03:16.891Z,2.45
2022-09-06T20:05:45.468Z,1.90
2022-09-06T20:08:16.298Z,2.63
2022-09-06T20:10:54.055Z,2.40
2022-09-06T20:13:22.635Z,2.60
2022-09-06T20:15:52.968Z,2.33
2022-09-06T20:18:21.572Z,2.53
2022-09-06T20:20:54.864Z,2.35
2022-09-06T20:23:25.501Z,2.30
2022-09-06T20:26:00.550Z,2.00
2022-09-06T20:28:29.374Z,2.65
2022-09-06T20:31:02.377Z,1.95
2022-09-06T20:33:32.876Z,2.25
2022-09-06T20:36:03.116Z,2.80
2022-09-06T20:38:31.993Z,2.58
2022-09-06T20:41:04.859Z,2.50
2022-09-06T20:43:39.186Z,2.40
2022-09-06T20:46:12.001Z,3.55
2022-09-06T20:48:44.486Z,2.83
2022-09-06T20:51:17.610Z,2.57
2022-09-06T20:53:54.891Z,3.20
2022-09-06T20:56:25.134Z,3.00
2022-09-06T20:59:08.709Z,3.17
2022-09-06T21:01:41.396Z,3.03
2022-09-06T21:04:15.603Z,3.10
2022-09-06T21:06:47.312Z,3.03
2022-09-06T21:09:24.513Z,2.75
2022-09-06T21:12:00.209Z,2.30
2022-09-06T21:14:41.237Z,2.70
2022-09-06T21:17:20.015Z,2.97
2022-09-06T21:19:57.691Z,2.85
2022-09-06T21:22:26.593Z,2.78
2022-09-06T21:24:57.869Z,3.58
2022-09-06T21:27:27.477Z,2.55
2022-09-06T21:29:56.337Z,2.65
2022-09-06T21:32:26.575Z,2.55
2022-09-06T21:34:55.028Z,3.05
2022-09-06T21:37:23.809Z,2.95
2022-09-06T21:39:56.317Z,2.55
2022-09-06T21:42:28.170Z,2.60
2022-09-06T21:44:57.634Z,2.53
2022-09-06T21:47:27.786Z,2.53
2022-09-06T21:49:56.680Z,2.50
2022-09-06T21:52:25.309Z,3.15
2022-09-06T21:54:54.685Z,3.33
2022-09-06T21:57:29.497Z,3.25
2022-09-06T21:59:58.230Z,4.07
2022-09-06T22:02:28.592Z,2.90
2022-09-06T22:05:01.631Z,2.90
2022-09-06T22:07:30.257Z,3.40
2022-09-06T22:10:00.349Z,3.30
2022-09-06T22:12:29.246Z,3.88
2022-09-06T22:14:57.830Z,3.30
2022-09-06T22:17:26.397Z,2.90
2022-09-06T22:19:56.495Z,3.13
2022-09-06T22:22:24.981Z,2.88
2022-09-06T22:24:53.776Z,3.40
2022-09-06T22:27:23.578Z,3.10
2022-09-06T22:29:52.126Z,2.85
2022-09-06T22:32:21.319Z,3.28
2022-09-06T22:34:49.972Z,3.30
2022-09-06T22:37:20.317Z,3.25
2022-09-06T22:39:49.366Z,3.45
2022-09-06T22:42:18.213Z,3.35
2022-09-06T22:44:46.886Z,4.28
2022-09-06T22:47:15.444Z,3.15
2022-09-06T22:49:44.128Z,3.28
2022-09-06T22:52:13.075Z,3.10
2022-09-06T22:54:43.129Z,2.97
2022-09-06T22:57:13.193Z,3.03
2022-09-06T22:59:44.582Z,3.60
2022-09-06T23:02:13.039Z,3.53
2022-09-06T23:04:41.644Z,3.25
2022-09-06T23:07:10.227Z,3.60
2022-09-06T23:09:41.588Z,3.42
2022-09-06T23:12:14.688Z,3.58
2022-09-06T23:14:44.400Z,3.85
2022-09-06T23:17:15.285Z,3.45
2022-09-06T23:19:44.067Z,3.50
2022-09-06T23:22:15.977Z,3.83
2022-09-06T23:24:48.193Z,3.20
2022-09-06T23:27:22.698Z,3.38
2022-09-06T23:29:51.446Z,3.83
2022-09-06T23:32:25.267Z,3.47
2022-09-06T23:34:57.497Z,3.47
2022-09-06T23:37:26.501Z,3.65
2022-09-06T23:39:55.913Z,3.60
2022-09-06T23:42:28.946Z,3.80
2022-09-06T23:45:01.095Z,4.03
2022-09-06T23:47:31.629Z,3.72
2022-09-06T23:50:03.485Z,3.97
2022-09-06T23:52:34.549Z,3.28
2022-09-06T23:55:03.189Z,3.22
2022-09-06T23:57:38.676Z,3.42
